sensor_id;sensor_type;location;lat;lon;timestamp;P1;durP1;ratioP1;P2;durP2;ratioP2
4365;SDS011;2196;47.422;9.656;2023-09-07T00:01:36;11.70;;;10.60;;
4365;SDS011;2196;47.422;9.656;2023-09-07T00:04:04;11.83;;;10.63;;
4365;SDS011;2196;47.422;9.656;2023-09-07T00:06:31;10.87;;;10.00;;
4365;SDS011;2196;47.422;9.656;2023-09-07T00:08:59;11.20;;;10.20;;
4365;SDS011;2196;47.422;9.656;2023-09-07T00:11:26;11.63;;;10.73;;
4365;SDS011;2196;47.422;9.656;2023-09-07T00:13:53;10.77;;;9.87;;
4365;SDS011;2196;47.422;9.656;2023-09-07T00:16:20;12.07;;;11.10;;
4365;SDS011;2196;47.422;9.656;2023-09-07T00:18:47;11.07;;;10.07;;
4365;SDS011;2196;47.422;9.656;2023-09-07T00:21:15;12.70;;;11.67;;
4365;SDS011;2196;47.422;9.656;2023-09-07T00:23:42;10.80;;;10.00;;
4365;SDS011;2196;47.422;9.656;2023-09-07T00:26:09;11.40;;;10.40;;
4365;SDS011;2196;47.422;9.656;2023-09-07T00:28:37;10.87;;;10.07;;
4365;SDS011;2196;47.422;9.656;2023-09-07T00:31:04;10.93;;;10.03;;
4365;SDS011;2196;47.422;9.656;2023-09-07T00:33:31;10.00;;;9.30;;
4365;SDS011;2196;47.422;9.656;2023-09-07T00:35:58;11.93;;;10.83;;
4365;SDS011;2196;47.422;9.656;2023-09-07T00:38:28;11.97;;;10.97;;
4365;SDS011;2196;47.422;9.656;2023-09-07T00:40:56;11.80;;;10.80;;
4365;SDS011;2196;47.422;9.656;2023-09-07T00:43:23;13.17;;;11.97;;
4365;SDS011;2196;47.422;9.656;2023-09-07T00:45:50;11.07;;;10.17;;
4365;SDS011;2196;47.422;9.656;2023-09-07T00:48:17;11.50;;;10.40;;
4365;SDS011;2196;47.422;9.656;2023-09-07T00:50:44;12.57;;;11.47;;
4365;SDS011;2196;47.422;9.656;2023-09-07T00:53:12;10.03;;;9.20;;
4365;SDS011;2196;47.422;9.656;2023-09-07T00:55:41;11.13;;;10.23;;
4365;SDS011;2196;47.422;9.656;2023-09-07T00:58:08;13.07;;;11.87;;
4365;SDS011;2196;47.422;9.656;2023-09-07T01:00:36;12.93;;;11.87;;
4365;SDS011;2196;47.422;9.656;2023-09-07T01:03:03;12.47;;;11.43;;
4365;SDS011;2196;47.422;9.656;2023-09-07T01:05:32;12.37;;;11.27;;
4365;SDS011;2196;47.422;9.656;2023-09-07T01:08:10;10.63;;;9.83;;
4365;SDS011;2196;47.422;9.656;2023-09-07T01:10:41;12.53;;;11.43;;
4365;SDS011;2196;47.422;9.656;2023-09-07T01:13:08;11.83;;;10.80;;
4365;SDS011;2196;47.422;9.656;2023-09-07T01:15:35;12.47;;;11.37;;
4365;SDS011;2196;47.422;9.656;2023-09-07T01:18:04;11.13;;;10.10;;
4365;SDS011;2196;47.422;9.656;2023-09-07T01:20:32;12.90;;;11.77;;
4365;SDS011;2196;47.422;9.656;2023-09-07T01:23:02;12.60;;;11.37;;
4365;SDS011;2196;47.422;9.656;2023-09-07T01:25:30;11.60;;;10.60;;
4365;SDS011;2196;47.422;9.656;2023-09-07T01:27:58;11.90;;;11.00;;
4365;SDS011;2196;47.422;9.656;2023-09-07T01:30:25;12.57;;;11.47;;
4365;SDS011;2196;47.422;9.656;2023-09-07T01:32:53;13.63;;;12.37;;
4365;SDS011;2196;47.422;9.656;2023-09-07T01:35:20;12.10;;;10.93;;
4365;SDS011;2196;47.422;9.656;2023-09-07T01:37:48;13.70;;;12.33;;
4365;SDS011;2196;47.422;9.656;2023-09-07T01:40:17;12.73;;;11.53;;
4365;SDS011;2196;47.422;9.656;2023-09-07T01:42:43;12.10;;;11.00;;
4365;SDS011;2196;47.422;9.656;2023-09-07T01:45:10;12.67;;;11.40;;
4365;SDS011;2196;47.422;9.656;2023-09-07T01:47:37;13.20;;;11.80;;
4365;SDS011;2196;47.422;9.656;2023-09-07T01:50:05;12.53;;;10.83;;
4365;SDS011;2196;47.422;9.656;2023-09-07T01:52:32;13.23;;;12.10;;
4365;SDS011;2196;47.422;9.656;2023-09-07T01:54:59;12.43;;;11.40;;
4365;SDS011;2196;47.422;9.656;2023-09-07T01:57:27;12.13;;;11.00;;
4365;SDS011;2196;47.422;9.656;2023-09-07T01:59:55;13.07;;;11.77;;
4365;SDS011;2196;47.422;9.656;2023-09-07T02:02:22;12.17;;;11.07;;
4365;SDS011;2196;47.422;9.656;2023-09-07T02:04:49;10.80;;;9.80;;
4365;SDS011;2196;47.422;9.656;2023-09-07T02:07:16;13.10;;;12.03;;
4365;SDS011;2196;47.422;9.656;2023-09-07T02:09:42;12.27;;;11.10;;
4365;SDS011;2196;47.422;9.656;2023-09-07T02:12:09;10.47;;;9.67;;
4365;SDS011;2196;47.422;9.656;2023-09-07T02:14:38;11.57;;;10.67;;
4365;SDS011;2196;47.422;9.656;2023-09-07T02:17:05;11.73;;;10.67;;
4365;SDS011;2196;47.422;9.656;2023-09-07T02:19:32;13.40;;;12.10;;
4365;SDS011;2196;47.422;9.656;2023-09-07T02:21:59;12.63;;;11.63;;
4365;SDS011;2196;47.422;9.656;2023-09-07T02:24:26;13.17;;;12.13;;
4365;SDS011;2196;47.422;9.656;2023-09-07T02:26:53;12.00;;;11.07;;
4365;SDS011;2196;47.422;9.656;2023-09-07T02:29:20;13.20;;;11.07;;
4365;SDS011;2196;47.422;9.656;2023-09-07T02:31:48;12.17;;;11.13;;
4365;SDS011;2196;47.422;9.656;2023-09-07T02:34:16;12.10;;;11.00;;
4365;SDS011;2196;47.422;9.656;2023-09-07T02:36:43;11.60;;;10.40;;
4365;SDS011;2196;47.422;9.656;2023-09-07T02:39:14;12.03;;;10.83;;
4365;SDS011;2196;47.422;9.656;2023-09-07T02:41:41;11.30;;;10.37;;
4365;SDS011;2196;47.422;9.656;2023-09-07T02:44:08;12.00;;;10.97;;
4365;SDS011;2196;47.422;9.656;2023-09-07T02:46:35;10.30;;;9.50;;
4365;SDS011;2196;47.422;9.656;2023-09-07T02:49:03;10.90;;;9.83;;
4365;SDS011;2196;47.422;9.656;2023-09-07T02:51:30;12.43;;;11.43;;
4365;SDS011;2196;47.422;9.656;2023-09-07T02:53:57;11.20;;;10.33;;
4365;SDS011;2196;47.422;9.656;2023-09-07T02:56:24;10.40;;;9.70;;
4365;SDS011;2196;47.422;9.656;2023-09-07T02:58:51;9.87;;;9.03;;
4365;SDS011;2196;47.422;9.656;2023-09-07T03:01:18;10.47;;;9.67;;
4365;SDS011;2196;47.422;9.656;2023-09-07T03:03:46;9.50;;;8.50;;
4365;SDS011;2196;47.422;9.656;2023-09-07T03:06:15;10.43;;;9.63;;
4365;SDS011;2196;47.422;9.656;2023-09-07T03:08:42;9.27;;;8.47;;
4365;SDS011;2196;47.422;9.656;2023-09-07T03:11:10;8.97;;;8.27;;
4365;SDS011;2196;47.422;9.656;2023-09-07T03:13:37;8.90;;;8.20;;
4365;SDS011;2196;47.422;9.656;2023-09-07T03:16:05;11.00;;;9.90;;
4365;SDS011;2196;47.422;9.656;2023-09-07T03:18:32;7.77;;;7.27;;
4365;SDS011;2196;47.422;9.656;2023-09-07T03:21:00;7.63;;;7.13;;
4365;SDS011;2196;47.422;9.656;2023-09-07T03:23:30;8.40;;;7.63;;
4365;SDS011;2196;47.422;9.656;2023-09-07T03:25:58;8.60;;;7.90;;
4365;SDS011;2196;47.422;9.656;2023-09-07T03:28:25;7.00;;;6.50;;
4365;SDS011;2196;47.422;9.656;2023-09-07T03:30:53;8.00;;;7.50;;
4365;SDS011;2196;47.422;9.656;2023-09-07T03:33:20;8.10;;;7.30;;
4365;SDS011;2196;47.422;9.656;2023-09-07T03:35:48;9.03;;;8.23;;
4365;SDS011;2196;47.422;9.656;2023-09-07T03:38:17;9.10;;;8.30;;
4365;SDS011;2196;47.422;9.656;2023-09-07T03:40:45;9.20;;;8.30;;
4365;SDS011;2196;47.422;9.656;2023-09-07T03:43:12;8.40;;;7.77;;
4365;SDS011;2196;47.422;9.656;2023-09-07T03:45:39;7.53;;;7.00;;
4365;SDS011;2196;47.422;9.656;2023-09-07T03:48:06;8.93;;;8.33;;
4365;SDS011;2196;47.422;9.656;2023-09-07T03:50:34;8.57;;;7.40;;
4365;SDS011;2196;47.422;9.656;2023-09-07T03:53:02;8.60;;;8.10;;
4365;SDS011;2196;47.422;9.656;2023-09-07T03:55:29;8.87;;;8.17;;
4365;SDS011;2196;47.422;9.656;2023-09-07T03:57:57;8.70;;;8.10;;
4365;SDS011;2196;47.422;9.656;2023-09-07T04:00:24;9.17;;;8.57;;
4365;SDS011;2196;47.422;9.656;2023-09-07T04:02:51;10.17;;;9.27;;
4365;SDS011;2196;47.422;9.656;2023-09-07T04:05:18;7.77;;;7.27;;
4365;SDS011;2196;47.422;9.656;2023-09-07T04:07:47;9.13;;;8.33;;
4365;SDS011;2196;47.422;9.656;2023-09-07T04:10:17;8.63;;;7.80;;
4365;SDS011;2196;47.422;9.656;2023-09-07T04:12:45;9.00;;;8.30;;
4365;SDS011;2196;47.422;9.656;2023-09-07T04:15:13;9.17;;;8.47;;
4365;SDS011;2196;47.422;9.656;2023-09-07T04:17:40;9.40;;;8.60;;
4365;SDS011;2196;47.422;9.656;2023-09-07T04:20:07;9.87;;;9.10;;
4365;SDS011;2196;47.422;9.656;2023-09-07T04:22:36;9.57;;;8.87;;
4365;SDS011;2196;47.422;9.656;2023-09-07T04:25:04;9.20;;;8.50;;
4365;SDS011;2196;47.422;9.656;2023-09-07T04:27:32;11.50;;;10.67;;
4365;SDS011;2196;47.422;9.656;2023-09-07T04:29:59;9.87;;;9.17;;
4365;SDS011;2196;47.422;9.656;2023-09-07T04:32:27;9.63;;;8.83;;
4365;SDS011;2196;47.422;9.656;2023-09-07T04:34:55;8.93;;;8.33;;
4365;SDS011;2196;47.422;9.656;2023-09-07T04:37:24;9.90;;;9.10;;
4365;SDS011;2196;47.422;9.656;2023-09-07T04:39:52;9.90;;;9.20;;
4365;SDS011;2196;47.422;9.656;2023-09-07T04:42:19;8.33;;;7.70;;
4365;SDS011;2196;47.422;9.656;2023-09-07T04:44:47;8.83;;;8.27;;
4365;SDS011;2196;47.422;9.656;2023-09-07T04:47:14;8.50;;;7.90;;
4365;SDS011;2196;47.422;9.656;2023-09-07T04:49:47;9.87;;;9.07;;
4365;SDS011;2196;47.422;9.656;2023-09-07T04:52:16;9.47;;;8.73;;
4365;SDS011;2196;47.422;9.656;2023-09-07T04:54:43;8.80;;;8.27;;
4365;SDS011;2196;47.422;9.656;2023-09-07T04:57:10;9.33;;;8.47;;
4365;SDS011;2196;47.422;9.656;2023-09-07T04:59:37;8.63;;;7.87;;
4365;SDS011;2196;47.422;9.656;2023-09-07T05:02:04;10.00;;;9.30;;
4365;SDS011;2196;47.422;9.656;2023-09-07T05:04:31;8.80;;;8.00;;
4365;SDS011;2196;47.422;9.656;2023-09-07T05:06:59;9.73;;;9.03;;
4365;SDS011;2196;47.422;9.656;2023-09-07T05:09:26;10.70;;;10.00;;
4365;SDS011;2196;47.422;9.656;2023-09-07T05:11:54;11.00;;;10.30;;
4365;SDS011;2196;47.422;9.656;2023-09-07T05:14:22;9.67;;;9.07;;
4365;SDS011;2196;47.422;9.656;2023-09-07T05:16:50;11.03;;;10.23;;
4365;SDS011;2196;47.422;9.656;2023-09-07T05:19:17;9.40;;;8.60;;
4365;SDS011;2196;47.422;9.656;2023-09-07T05:21:45;10.33;;;9.43;;
4365;SDS011;2196;47.422;9.656;2023-09-07T05:24:15;11.57;;;10.70;;
4365;SDS011;2196;47.422;9.656;2023-09-07T05:26:42;10.60;;;9.60;;
4365;SDS011;2196;47.422;9.656;2023-09-07T05:29:10;10.27;;;9.47;;
4365;SDS011;2196;47.422;9.656;2023-09-07T05:31:38;10.27;;;9.57;;
4365;SDS011;2196;47.422;9.656;2023-09-07T05:34:05;10.03;;;9.23;;
4365;SDS011;2196;47.422;9.656;2023-09-07T05:36:32;10.33;;;9.57;;
4365;SDS011;2196;47.422;9.656;2023-09-07T05:38:59;9.67;;;9.00;;
4365;SDS011;2196;47.422;9.656;2023-09-07T05:41:29;11.40;;;10.53;;
4365;SDS011;2196;47.422;9.656;2023-09-07T05:43:56;9.07;;;8.23;;
4365;SDS011;2196;47.422;9.656;2023-09-07T05:46:23;9.60;;;8.90;;
4365;SDS011;2196;47.422;9.656;2023-09-07T05:48:50;10.10;;;9.30;;
4365;SDS011;2196;47.422;9.656;2023-09-07T05:51:17;10.23;;;9.43;;
4365;SDS011;2196;47.422;9.656;2023-09-07T05:53:44;10.37;;;9.43;;
4365;SDS011;2196;47.422;9.656;2023-09-07T05:56:11;9.17;;;8.57;;
4365;SDS011;2196;47.422;9.656;2023-09-07T05:58:39;8.73;;;8.13;;
4365;SDS011;2196;47.422;9.656;2023-09-07T06:01:06;10.93;;;9.53;;
4365;SDS011;2196;47.422;9.656;2023-09-07T06:03:33;9.10;;;8.50;;
4365;SDS011;2196;47.422;9.656;2023-09-07T06:06:01;7.90;;;7.30;;
4365;SDS011;2196;47.422;9.656;2023-09-07T06:08:29;7.73;;;7.13;;
4365;SDS011;2196;47.422;9.656;2023-09-07T06:10:57;8.33;;;7.70;;
4365;SDS011;2196;47.422;9.656;2023-09-07T06:13:26;9.20;;;8.50;;
4365;SDS011;2196;47.422;9.656;2023-09-07T06:15:56;9.33;;;8.60;;
4365;SDS011;2196;47.422;9.656;2023-09-07T06:18:28;8.60;;;7.90;;
4365;SDS011;2196;47.422;9.656;2023-09-07T06:20:55;10.20;;;9.50;;
4365;SDS011;2196;47.422;9.656;2023-09-07T06:23:23;8.03;;;7.53;;
4365;SDS011;2196;47.422;9.656;2023-09-07T06:25:51;8.40;;;7.80;;
4365;SDS011;2196;47.422;9.656;2023-09-07T06:28:18;9.03;;;8.23;;
4365;SDS011;2196;47.422;9.656;2023-09-07T06:30:45;8.13;;;7.53;;
4365;SDS011;2196;47.422;9.656;2023-09-07T06:33:13;9.13;;;8.43;;
4365;SDS011;2196;47.422;9.656;2023-09-07T06:35:40;8.55;;;7.97;;
4365;SDS011;2196;47.422;9.656;2023-09-07T06:38:07;9.32;;;8.50;;
4365;SDS011;2196;47.422;9.656;2023-09-07T06:40:35;8.70;;;7.50;;
4365;SDS011;2196;47.422;9.656;2023-09-07T06:43:02;7.45;;;6.85;;
4365;SDS011;2196;47.422;9.656;2023-09-07T06:45:30;8.18;;;7.50;;
4365;SDS011;2196;47.422;9.656;2023-09-07T06:48:03;6.32;;;5.88;;
4365;SDS011;2196;47.422;9.656;2023-09-07T06:50:32;7.75;;;6.95;;
4365;SDS011;2196;47.422;9.656;2023-09-07T06:52:59;6.60;;;6.28;;
4365;SDS011;2196;47.422;9.656;2023-09-07T06:55:27;6.32;;;6.03;;
4365;SDS011;2196;47.422;9.656;2023-09-07T06:57:55;8.85;;;6.25;;
4365;SDS011;2196;47.422;9.656;2023-09-07T07:00:22;5.45;;;5.05;;
4365;SDS011;2196;47.422;9.656;2023-09-07T07:02:49;6.05;;;5.70;;
4365;SDS011;2196;47.422;9.656;2023-09-07T07:05:16;4.97;;;4.68;;
4365;SDS011;2196;47.422;9.656;2023-09-07T07:07:44;5.40;;;5.10;;
4365;SDS011;2196;47.422;9.656;2023-09-07T07:10:12;6.22;;;6.03;;
4365;SDS011;2196;47.422;9.656;2023-09-07T07:12:39;5.60;;;5.30;;
4365;SDS011;2196;47.422;9.656;2023-09-07T07:15:07;6.72;;;6.35;;
4365;SDS011;2196;47.422;9.656;2023-09-07T07:17:36;8.40;;;6.75;;
4365;SDS011;2196;47.422;9.656;2023-09-07T07:20:04;7.22;;;6.72;;
4365;SDS011;2196;47.422;9.656;2023-09-07T07:22:32;5.97;;;5.53;;
4365;SDS011;2196;47.422;9.656;2023-09-07T07:25:02;8.20;;;7.57;;
4365;SDS011;2196;47.422;9.656;2023-09-07T07:27:30;6.05;;;5.75;;
4365;SDS011;2196;47.422;9.656;2023-09-07T07:29:58;6.97;;;6.38;;
4365;SDS011;2196;47.422;9.656;2023-09-07T07:32:25;5.97;;;5.57;;
4365;SDS011;2196;47.422;9.656;2023-09-07T07:34:52;5.30;;;5.00;;
4365;SDS011;2196;47.422;9.656;2023-09-07T07:37:19;8.00;;;7.50;;
4365;SDS011;2196;47.422;9.656;2023-09-07T07:39:46;7.40;;;6.78;;
4365;SDS011;2196;47.422;9.656;2023-09-07T07:42:14;8.15;;;7.25;;
4365;SDS011;2196;47.422;9.656;2023-09-07T07:44:43;7.00;;;6.63;;
4365;SDS011;2196;47.422;9.656;2023-09-07T07:47:10;7.78;;;7.22;;
4365;SDS011;2196;47.422;9.656;2023-09-07T07:49:37;8.15;;;7.55;;
4365;SDS011;2196;47.422;9.656;2023-09-07T07:52:04;6.90;;;6.50;;
4365;SDS011;2196;47.422;9.656;2023-09-07T07:54:33;6.50;;;6.10;;
4365;SDS011;2196;47.422;9.656;2023-09-07T07:57:00;6.38;;;6.07;;
4365;SDS011;2196;47.422;9.656;2023-09-07T07:59:28;7.20;;;6.55;;
4365;SDS011;2196;47.422;9.656;2023-09-07T08:01:55;8.15;;;7.53;;
4365;SDS011;2196;47.422;9.656;2023-09-07T08:04:22;7.90;;;7.22;;
4365;SDS011;2196;47.422;9.656;2023-09-07T08:06:49;7.55;;;7.00;;
4365;SDS011;2196;47.422;9.656;2023-09-07T08:09:19;7.43;;;7.03;;
4365;SDS011;2196;47.422;9.656;2023-09-07T08:11:47;9.35;;;8.20;;
4365;SDS011;2196;47.422;9.656;2023-09-07T08:14:17;8.02;;;7.53;;
4365;SDS011;2196;47.422;9.656;2023-09-07T08:16:45;7.05;;;6.55;;
4365;SDS011;2196;47.422;9.656;2023-09-07T08:19:12;7.15;;;6.55;;
4365;SDS011;2196;47.422;9.656;2023-09-07T08:21:44;8.25;;;7.57;;
4365;SDS011;2196;47.422;9.656;2023-09-07T08:24:12;7.05;;;6.65;;
4365;SDS011;2196;47.422;9.656;2023-09-07T08:26:43;7.28;;;6.68;;
4365;SDS011;2196;47.422;9.656;2023-09-07T08:29:10;7.68;;;6.50;;
4365;SDS011;2196;47.422;9.656;2023-09-07T08:31:37;7.18;;;6.68;;
4365;SDS011;2196;47.422;9.656;2023-09-07T08:34:06;8.20;;;7.63;;
4365;SDS011;2196;47.422;9.656;2023-09-07T08:36:36;7.90;;;7.35;;
4365;SDS011;2196;47.422;9.656;2023-09-07T08:39:03;8.35;;;7.85;;
4365;SDS011;2196;47.422;9.656;2023-09-07T08:41:36;9.32;;;8.70;;
4365;SDS011;2196;47.422;9.656;2023-09-07T08:44:07;7.75;;;7.07;;
4365;SDS011;2196;47.422;9.656;2023-09-07T08:46:35;9.55;;;8.63;;
4365;SDS011;2196;47.422;9.656;2023-09-07T08:49:03;9.18;;;8.20;;
4365;SDS011;2196;47.422;9.656;2023-09-07T08:51:32;8.68;;;8.27;;
4365;SDS011;2196;47.422;9.656;2023-09-07T08:54:01;8.98;;;8.38;;
4365;SDS011;2196;47.422;9.656;2023-09-07T08:56:29;8.02;;;7.40;;
4365;SDS011;2196;47.422;9.656;2023-09-07T08:58:56;8.60;;;8.02;;
4365;SDS011;2196;47.422;9.656;2023-09-07T09:01:23;8.00;;;7.30;;
4365;SDS011;2196;47.422;9.656;2023-09-07T09:03:50;6.85;;;6.28;;
4365;SDS011;2196;47.422;9.656;2023-09-07T09:06:19;7.63;;;7.00;;
4365;SDS011;2196;47.422;9.656;2023-09-07T09:08:47;8.30;;;7.60;;
4365;SDS011;2196;47.422;9.656;2023-09-07T09:11:15;7.35;;;6.78;;
4365;SDS011;2196;47.422;9.656;2023-09-07T09:13:43;7.28;;;6.68;;
4365;SDS011;2196;47.422;9.656;2023-09-07T09:16:11;8.77;;;8.07;;
4365;SDS011;2196;47.422;9.656;2023-09-07T09:18:46;6.68;;;6.07;;
4365;SDS011;2196;47.422;9.656;2023-09-07T09:21:14;7.55;;;7.03;;
4365;SDS011;2196;47.422;9.656;2023-09-07T09:23:42;6.85;;;6.55;;
4365;SDS011;2196;47.422;9.656;2023-09-07T09:26:10;7.28;;;6.78;;
4365;SDS011;2196;47.422;9.656;2023-09-07T09:28:38;7.28;;;6.63;;
4365;SDS011;2196;47.422;9.656;2023-09-07T09:31:05;6.75;;;6.25;;
4365;SDS011;2196;47.422;9.656;2023-09-07T09:33:37;8.48;;;7.90;;
4365;SDS011;2196;47.422;9.656;2023-09-07T09:36:05;7.70;;;7.20;;
4365;SDS011;2196;47.422;9.656;2023-09-07T09:38:32;9.02;;;8.48;;
4365;SDS011;2196;47.422;9.656;2023-09-07T09:41:01;8.45;;;7.95;;
4365;SDS011;2196;47.422;9.656;2023-09-07T09:43:30;7.40;;;6.88;;
4365;SDS011;2196;47.422;9.656;2023-09-07T09:45:57;8.30;;;7.60;;
4365;SDS011;2196;47.422;9.656;2023-09-07T09:48:25;8.20;;;7.47;;
4365;SDS011;2196;47.422;9.656;2023-09-07T09:50:54;7.07;;;6.47;;
4365;SDS011;2196;47.422;9.656;2023-09-07T09:53:22;7.55;;;7.15;;
4365;SDS011;2196;47.422;9.656;2023-09-07T09:55:51;8.43;;;7.82;;
4365;SDS011;2196;47.422;9.656;2023-09-07T09:58:20;8.57;;;7.97;;
4365;SDS011;2196;47.422;9.656;2023-09-07T10:00:48;8.50;;;7.90;;
4365;SDS011;2196;47.422;9.656;2023-09-07T10:03:17;7.28;;;6.88;;
4365;SDS011;2196;47.422;9.656;2023-09-07T10:05:50;7.32;;;6.90;;
4365;SDS011;2196;47.422;9.656;2023-09-07T10:08:17;7.00;;;6.60;;
4365;SDS011;2196;47.422;9.656;2023-09-07T10:10:48;7.43;;;6.90;;
4365;SDS011;2196;47.422;9.656;2023-09-07T10:13:28;8.05;;;7.55;;
4365;SDS011;2196;47.422;9.656;2023-09-07T10:15:59;8.23;;;7.82;;
4365;SDS011;2196;47.422;9.656;2023-09-07T10:18:33;7.45;;;6.95;;
4365;SDS011;2196;47.422;9.656;2023-09-07T10:21:01;8.02;;;7.25;;
4365;SDS011;2196;47.422;9.656;2023-09-07T10:23:35;7.90;;;7.35;;
4365;SDS011;2196;47.422;9.656;2023-09-07T10:26:03;7.07;;;6.65;;
4365;SDS011;2196;47.422;9.656;2023-09-07T10:28:33;6.68;;;6.28;;
4365;SDS011;2196;47.422;9.656;2023-09-07T10:31:00;7.38;;;6.97;;
4365;SDS011;2196;47.422;9.656;2023-09-07T10:33:29;8.18;;;7.63;;
4365;SDS011;2196;47.422;9.656;2023-09-07T10:35:57;6.93;;;6.43;;
4365;SDS011;2196;47.422;9.656;2023-09-07T10:38:24;7.60;;;7.10;;
4365;SDS011;2196;47.422;9.656;2023-09-07T10:40:55;8.13;;;7.63;;
4365;SDS011;2196;47.422;9.656;2023-09-07T10:43:26;7.65;;;7.07;;
4365;SDS011;2196;47.422;9.656;2023-09-07T10:45:55;7.63;;;7.13;;
4365;SDS011;2196;47.422;9.656;2023-09-07T10:48:24;7.78;;;7.10;;
4365;SDS011;2196;47.422;9.656;2023-09-07T10:50:51;9.02;;;7.80;;
4365;SDS011;2196;47.422;9.656;2023-09-07T10:53:28;8.35;;;7.70;;
4365;SDS011;2196;47.422;9.656;2023-09-07T10:55:56;7.85;;;7.25;;
4365;SDS011;2196;47.422;9.656;2023-09-07T10:58:25;8.05;;;7.40;;
4365;SDS011;2196;47.422;9.656;2023-09-07T11:00:55;7.10;;;6.70;;
4365;SDS011;2196;47.422;9.656;2023-09-07T11:03:22;8.20;;;7.55;;
4365;SDS011;2196;47.422;9.656;2023-09-07T11:05:51;8.23;;;7.68;;
4365;SDS011;2196;47.422;9.656;2023-09-07T11:08:20;7.38;;;6.90;;
4365;SDS011;2196;47.422;9.656;2023-09-07T11:10:47;7.40;;;6.78;;
4365;SDS011;2196;47.422;9.656;2023-09-07T11:13:17;8.63;;;8.00;;
4365;SDS011;2196;47.422;9.656;2023-09-07T11:15:44;8.18;;;7.47;;
4365;SDS011;2196;47.422;9.656;2023-09-07T11:18:12;7.63;;;7.03;;
4365;SDS011;2196;47.422;9.656;2023-09-07T11:20:39;7.70;;;7.20;;
4365;SDS011;2196;47.422;9.656;2023-09-07T11:23:06;8.95;;;8.13;;
4365;SDS011;2196;47.422;9.656;2023-09-07T11:25:34;9.98;;;9.00;;
4365;SDS011;2196;47.422;9.656;2023-09-07T11:28:02;8.50;;;7.77;;
4365;SDS011;2196;47.422;9.656;2023-09-07T11:30:29;8.30;;;7.60;;
4365;SDS011;2196;47.422;9.656;2023-09-07T11:33:04;7.83;;;7.10;;
4365;SDS011;2196;47.422;9.656;2023-09-07T11:35:34;7.90;;;7.43;;
4365;SDS011;2196;47.422;9.656;2023-09-07T11:38:02;8.17;;;7.57;;
4365;SDS011;2196;47.422;9.656;2023-09-07T11:40:32;8.40;;;7.80;;
4365;SDS011;2196;47.422;9.656;2023-09-07T11:42:58;7.93;;;7.22;;
4365;SDS011;2196;47.422;9.656;2023-09-07T11:45:25;9.03;;;6.60;;
4365;SDS011;2196;47.422;9.656;2023-09-07T11:47:52;7.97;;;7.57;;
4365;SDS011;2196;47.422;9.656;2023-09-07T11:50:19;7.80;;;7.30;;
4365;SDS011;2196;47.422;9.656;2023-09-07T11:52:51;8.33;;;7.70;;
4365;SDS011;2196;47.422;9.656;2023-09-07T11:55:18;8.02;;;7.53;;
4365;SDS011;2196;47.422;9.656;2023-09-07T11:57:45;7.53;;;6.80;;
4365;SDS011;2196;47.422;9.656;2023-09-07T12:00:12;9.52;;;8.77;;
4365;SDS011;2196;47.422;9.656;2023-09-07T12:02:39;10.13;;;8.98;;
4365;SDS011;2196;47.422;9.656;2023-09-07T12:05:07;8.25;;;7.45;;
4365;SDS011;2196;47.422;9.656;2023-09-07T12:07:34;8.30;;;7.80;;
4365;SDS011;2196;47.422;9.656;2023-09-07T12:10:03;8.43;;;7.78;;
4365;SDS011;2196;47.422;9.656;2023-09-07T12:12:31;7.80;;;7.40;;
4365;SDS011;2196;47.422;9.656;2023-09-07T12:14:58;7.13;;;6.72;;
4365;SDS011;2196;47.422;9.656;2023-09-07T12:17:25;7.22;;;6.93;;
4365;SDS011;2196;47.422;9.656;2023-09-07T12:19:52;8.30;;;7.82;;
4365;SDS011;2196;47.422;9.656;2023-09-07T12:22:19;7.75;;;7.18;;
4365;SDS011;2196;47.422;9.656;2023-09-07T12:24:46;8.23;;;7.53;;
4365;SDS011;2196;47.422;9.656;2023-09-07T12:27:14;7.75;;;7.35;;
4365;SDS011;2196;47.422;9.656;2023-09-07T12:29:42;7.65;;;6.35;;
4365;SDS011;2196;47.422;9.656;2023-09-07T12:32:09;6.63;;;6.15;;
4365;SDS011;2196;47.422;9.656;2023-09-07T12:34:36;7.85;;;7.30;;
4365;SDS011;2196;47.422;9.656;2023-09-07T12:37:04;6.60;;;6.25;;
4365;SDS011;2196;47.422;9.656;2023-09-07T12:39:31;6.05;;;5.72;;
4365;SDS011;2196;47.422;9.656;2023-09-07T12:41:58;6.93;;;6.43;;
4365;SDS011;2196;47.422;9.656;2023-09-07T12:44:26;6.13;;;5.93;;
4365;SDS011;2196;47.422;9.656;2023-09-07T12:46:53;6.78;;;6.43;;
4365;SDS011;2196;47.422;9.656;2023-09-07T12:49:21;6.32;;;5.93;;
4365;SDS011;2196;47.422;9.656;2023-09-07T12:51:47;5.60;;;5.40;;
4365;SDS011;2196;47.422;9.656;2023-09-07T12:54:14;5.28;;;4.93;;
4365;SDS011;2196;47.422;9.656;2023-09-07T12:56:42;5.70;;;5.30;;
4365;SDS011;2196;47.422;9.656;2023-09-07T12:59:10;5.60;;;5.30;;
4365;SDS011;2196;47.422;9.656;2023-09-07T13:01:42;6.78;;;6.47;;
4365;SDS011;2196;47.422;9.656;2023-09-07T13:04:09;8.40;;;6.80;;
4365;SDS011;2196;47.422;9.656;2023-09-07T13:06:36;8.10;;;7.60;;
4365;SDS011;2196;47.422;9.656;2023-09-07T13:09:03;7.13;;;6.82;;
4365;SDS011;2196;47.422;9.656;2023-09-07T13:11:30;7.55;;;6.82;;
4365;SDS011;2196;47.422;9.656;2023-09-07T13:13:58;7.85;;;7.10;;
4365;SDS011;2196;47.422;9.656;2023-09-07T13:16:25;7.13;;;6.82;;
4365;SDS011;2196;47.422;9.656;2023-09-07T13:18:53;7.80;;;7.30;;
4365;SDS011;2196;47.422;9.656;2023-09-07T13:21:20;7.82;;;7.13;;
4365;SDS011;2196;47.422;9.656;2023-09-07T13:23:47;7.95;;;7.30;;
4365;SDS011;2196;47.422;9.656;2023-09-07T13:26:14;7.78;;;7.13;;
4365;SDS011;2196;47.422;9.656;2023-09-07T13:28:41;9.05;;;8.38;;
4365;SDS011;2196;47.422;9.656;2023-09-07T13:31:08;7.43;;;6.82;;
4365;SDS011;2196;47.422;9.656;2023-09-07T13:33:35;8.07;;;7.38;;
4365;SDS011;2196;47.422;9.656;2023-09-07T13:36:04;9.27;;;8.57;;
4365;SDS011;2196;47.422;9.656;2023-09-07T13:38:31;8.88;;;8.18;;
4365;SDS011;2196;47.422;9.656;2023-09-07T13:40:58;7.40;;;6.70;;
4365;SDS011;2196;47.422;9.656;2023-09-07T13:43:25;7.45;;;7.03;;
4365;SDS011;2196;47.422;9.656;2023-09-07T13:45:52;7.47;;;6.95;;
4365;SDS011;2196;47.422;9.656;2023-09-07T13:48:19;8.77;;;7.93;;
4365;SDS011;2196;47.422;9.656;2023-09-07T13:50:46;7.43;;;6.53;;
4365;SDS011;2196;47.422;9.656;2023-09-07T13:53:15;7.47;;;6.80;;
4365;SDS011;2196;47.422;9.656;2023-09-07T13:55:42;7.05;;;6.43;;
4365;SDS011;2196;47.422;9.656;2023-09-07T13:58:11;7.03;;;6.53;;
4365;SDS011;2196;47.422;9.656;2023-09-07T14:00:38;7.30;;;6.90;;
4365;SDS011;2196;47.422;9.656;2023-09-07T14:03:05;6.85;;;6.53;;
4365;SDS011;2196;47.422;9.656;2023-09-07T14:05:32;7.28;;;6.97;;
4365;SDS011;2196;47.422;9.656;2023-09-07T14:07:59;6.28;;;6.07;;
4365;SDS011;2196;47.422;9.656;2023-09-07T14:10:27;7.72;;;7.32;;
4365;SDS011;2196;47.422;9.656;2023-09-07T14:12:54;6.78;;;6.45;;
4365;SDS011;2196;47.422;9.656;2023-09-07T14:15:21;7.30;;;6.80;;
4365;SDS011;2196;47.422;9.656;2023-09-07T14:17:48;7.22;;;6.55;;
4365;SDS011;2196;47.422;9.656;2023-09-07T14:20:15;8.43;;;7.78;;
4365;SDS011;2196;47.422;9.656;2023-09-07T14:22:42;7.68;;;7.25;;
4365;SDS011;2196;47.422;9.656;2023-09-07T14:25:09;7.38;;;6.88;;
4365;SDS011;2196;47.422;9.656;2023-09-07T14:27:38;7.18;;;6.88;;
4365;SDS011;2196;47.422;9.656;2023-09-07T14:30:05;7.00;;;6.53;;
4365;SDS011;2196;47.422;9.656;2023-09-07T14:32:33;7.97;;;7.35;;
4365;SDS011;2196;47.422;9.656;2023-09-07T14:35:00;7.35;;;6.85;;
4365;SDS011;2196;47.422;9.656;2023-09-07T14:37:26;7.32;;;6.82;;
4365;SDS011;2196;47.422;9.656;2023-09-07T14:39:54;7.43;;;6.95;;
4365;SDS011;2196;47.422;9.656;2023-09-07T14:42:23;6.97;;;6.68;;
4365;SDS011;2196;47.422;9.656;2023-09-07T14:44:51;7.30;;;6.80;;
4365;SDS011;2196;47.422;9.656;2023-09-07T14:47:19;9.80;;;8.57;;
4365;SDS011;2196;47.422;9.656;2023-09-07T14:49:50;6.72;;;6.32;;
4365;SDS011;2196;47.422;9.656;2023-09-07T14:52:17;7.38;;;6.90;;
4365;SDS011;2196;47.422;9.656;2023-09-07T14:54:46;7.78;;;7.22;;
4365;SDS011;2196;47.422;9.656;2023-09-07T14:57:14;7.32;;;6.85;;
4365;SDS011;2196;47.422;9.656;2023-09-07T14:59:40;7.53;;;7.13;;
4365;SDS011;2196;47.422;9.656;2023-09-07T15:02:09;7.15;;;6.47;;
4365;SDS011;2196;47.422;9.656;2023-09-07T15:04:36;7.55;;;7.15;;
4365;SDS011;2196;47.422;9.656;2023-09-07T15:07:03;7.40;;;7.00;;
4365;SDS011;2196;47.422;9.656;2023-09-07T15:09:30;8.40;;;7.65;;
4365;SDS011;2196;47.422;9.656;2023-09-07T15:11:57;7.70;;;6.97;;
4365;SDS011;2196;47.422;9.656;2023-09-07T15:14:24;8.07;;;7.57;;